sensor_id;sensor_type;location;lat;lon;timestamp;P1;durP1;ratioP1;P2;durP2;ratioP2
36415;SDS011;22447;44.530;18.620;2022-11-12T00:00:18;149.35;;;82.93;;
36415;SDS011;22447;44.530;18.620;2022-11-12T00:03:03;153.35;;;84.75;;
36415;SDS011;22447;44.530;18.620;2022-11-12T00:05:47;160.95;;;85.57;;
36415;SDS011;22447;44.530;18.620;2022-11-12T00:08:33;171.43;;;86.88;;
36415;SDS011;22447;44.530;18.620;2022-11-12T00:11:17;162.82;;;84.95;;
36415;SDS011;22447;44.530;18.620;2022-11-12T00:14:02;154.40;;;81.88;;
36415;SDS011;22447;44.530;18.620;2022-11-12T00:16:47;152.70;;;79.97;;
36415;SDS011;22447;44.530;18.620;2022-11-12T00:19:31;134.80;;;73.97;;
36415;SDS011;22447;44.530;18.620;2022-11-12T00:22:16;127.60;;;70.18;;
36415;SDS011;22447;44.530;18.620;2022-11-12T00:25:01;126.35;;;67.60;;
36415;SDS011;22447;44.530;18.620;2022-11-12T00:27:45;121.63;;;66.88;;
36415;SDS011;22447;44.530;18.620;2022-11-12T00:30:30;119.55;;;64.35;;
36415;SDS011;22447;44.530;18.620;2022-11-12T00:33:15;125.95;;;69.07;;
36415;SDS011;22447;44.530;18.620;2022-11-12T00:35:59;119.13;;;64.00;;
36415;SDS011;22447;44.530;18.620;2022-11-12T00:38:44;111.65;;;64.95;;
36415;SDS011;22447;44.530;18.620;2022-11-12T00:41:28;129.65;;;69.97;;
36415;SDS011;22447;44.530;18.620;2022-11-12T00:44:13;138.95;;;70.03;;
36415;SDS011;22447;44.530;18.620;2022-11-12T00:46:58;128.98;;;70.78;;
36415;SDS011;22447;44.530;18.620;2022-11-12T00:49:42;143.52;;;77.45;;
36415;SDS011;22447;44.530;18.620;2022-11-12T00:52:27;148.57;;;81.30;;
36415;SDS011;22447;44.530;18.620;2022-11-12T00:55:12;176.95;;;90.20;;
36415;SDS011;22447;44.530;18.620;2022-11-12T00:57:57;182.88;;;95.55;;
36415;SDS011;22447;44.530;18.620;2022-11-12T01:00:42;141.68;;;76.85;;
36415;SDS011;22447;44.530;18.620;2022-11-12T01:03:26;148.65;;;78.20;;
36415;SDS011;22447;44.530;18.620;2022-11-12T01:06:12;141.15;;;73.18;;
36415;SDS011;22447;44.530;18.620;2022-11-12T01:08:58;121.25;;;66.35;;
36415;SDS011;22447;44.530;18.620;2022-11-12T01:11:43;113.50;;;60.67;;
36415;SDS011;22447;44.530;18.620;2022-11-12T01:14:28;109.75;;;59.03;;
36415;SDS011;22447;44.530;18.620;2022-11-12T01:17:12;118.80;;;63.67;;
36415;SDS011;22447;44.530;18.620;2022-11-12T01:19:57;123.82;;;65.03;;
36415;SDS011;22447;44.530;18.620;2022-11-12T01:22:41;110.38;;;59.85;;
36415;SDS011;22447;44.530;18.620;2022-11-12T01:25:26;112.88;;;61.45;;
36415;SDS011;22447;44.530;18.620;2022-11-12T01:28:11;108.50;;;62.22;;
36415;SDS011;22447;44.530;18.620;2022-11-12T01:30:56;126.43;;;65.30;;
36415;SDS011;22447;44.530;18.620;2022-11-12T01:33:41;124.93;;;67.80;;
36415;SDS011;22447;44.530;18.620;2022-11-12T01:36:26;122.35;;;61.78;;
36415;SDS011;22447;44.530;18.620;2022-11-12T01:39:14;116.88;;;62.35;;
36415;SDS011;22447;44.530;18.620;2022-11-12T01:41:58;117.47;;;58.80;;
36415;SDS011;22447;44.530;18.620;2022-11-12T01:44:43;112.20;;;58.95;;
36415;SDS011;22447;44.530;18.620;2022-11-12T01:47:29;109.70;;;57.28;;
36415;SDS011;22447;44.530;18.620;2022-11-12T01:50:27;116.03;;;58.60;;
36415;SDS011;22447;44.530;18.620;2022-11-12T01:53:14;99.43;;;53.55;;
36415;SDS011;22447;44.530;18.620;2022-11-12T01:55:59;109.47;;;57.35;;
36415;SDS011;22447;44.530;18.620;2022-11-12T01:58:48;103.93;;;56.17;;
36415;SDS011;22447;44.530;18.620;2022-11-12T02:01:36;112.40;;;59.35;;
36415;SDS011;22447;44.530;18.620;2022-11-12T02:04:21;100.40;;;54.22;;
36415;SDS011;22447;44.530;18.620;2022-11-12T02:07:06;101.15;;;55.20;;
36415;SDS011;22447;44.530;18.620;2022-11-12T02:09:52;106.35;;;57.80;;
36415;SDS011;22447;44.530;18.620;2022-11-12T02:12:37;111.93;;;59.15;;
36415;SDS011;22447;44.530;18.620;2022-11-12T02:15:40;107.90;;;57.50;;
36415;SDS011;22447;44.530;18.620;2022-11-12T02:18:25;109.15;;;58.25;;
36415;SDS011;22447;44.530;18.620;2022-11-12T02:21:10;103.55;;;54.60;;
36415;SDS011;22447;44.530;18.620;2022-11-12T02:23:58;110.55;;;57.97;;
36415;SDS011;22447;44.530;18.620;2022-11-12T02:26:49;114.93;;;62.58;;
36415;SDS011;22447;44.530;18.620;2022-11-12T02:29:36;115.70;;;58.35;;
36415;SDS011;22447;44.530;18.620;2022-11-12T02:32:28;110.43;;;59.65;;
36415;SDS011;22447;44.530;18.620;2022-11-12T02:35:13;105.32;;;54.83;;
36415;SDS011;22447;44.530;18.620;2022-11-12T02:37:58;108.05;;;56.17;;
36415;SDS011;22447;44.530;18.620;2022-11-12T02:40:43;114.07;;;56.08;;
36415;SDS011;22447;44.530;18.620;2022-11-12T02:43:27;107.63;;;58.55;;
36415;SDS011;22447;44.530;18.620;2022-11-12T02:46:12;112.75;;;56.58;;
36415;SDS011;22447;44.530;18.620;2022-11-12T02:48:57;116.65;;;60.83;;
36415;SDS011;22447;44.530;18.620;2022-11-12T02:51:41;112.75;;;55.97;;
36415;SDS011;22447;44.530;18.620;2022-11-12T02:54:26;113.80;;;59.53;;
36415;SDS011;22447;44.530;18.620;2022-11-12T02:57:11;119.05;;;63.67;;
36415;SDS011;22447;44.530;18.620;2022-11-12T02:59:55;139.80;;;71.43;;
36415;SDS011;22447;44.530;18.620;2022-11-12T03:02:40;148.48;;;78.38;;
36415;SDS011;22447;44.530;18.620;2022-11-12T03:05:41;97.72;;;51.67;;
36415;SDS011;22447;44.530;18.620;2022-11-12T03:08:27;90.55;;;48.00;;
36415;SDS011;22447;44.530;18.620;2022-11-12T03:11:13;87.20;;;49.28;;
36415;SDS011;22447;44.530;18.620;2022-11-12T03:13:59;89.03;;;49.47;;
36415;SDS011;22447;44.530;18.620;2022-11-12T03:16:45;96.15;;;51.17;;
36415;SDS011;22447;44.530;18.620;2022-11-12T03:19:29;116.25;;;56.45;;
36415;SDS011;22447;44.530;18.620;2022-11-12T03:22:14;103.68;;;53.33;;
36415;SDS011;22447;44.530;18.620;2022-11-12T03:24:59;105.10;;;59.17;;
36415;SDS011;22447;44.530;18.620;2022-11-12T03:27:43;120.18;;;62.45;;
36415;SDS011;22447;44.530;18.620;2022-11-12T03:30:28;126.15;;;66.38;;
36415;SDS011;22447;44.530;18.620;2022-11-12T03:33:15;119.30;;;64.45;;
36415;SDS011;22447;44.530;18.620;2022-11-12T03:35:59;120.72;;;63.58;;
36415;SDS011;22447;44.530;18.620;2022-11-12T03:38:44;109.88;;;56.83;;
36415;SDS011;22447;44.530;18.620;2022-11-12T03:41:29;93.00;;;51.53;;
36415;SDS011;22447;44.530;18.620;2022-11-12T03:44:13;104.47;;;53.28;;
36415;SDS011;22447;44.530;18.620;2022-11-12T03:46:58;97.28;;;53.05;;
36415;SDS011;22447;44.530;18.620;2022-11-12T03:49:43;99.82;;;54.70;;
36415;SDS011;22447;44.530;18.620;2022-11-12T03:52:28;104.85;;;55.88;;
36415;SDS011;22447;44.530;18.620;2022-11-12T03:55:13;98.72;;;56.05;;
36415;SDS011;22447;44.530;18.620;2022-11-12T03:57:59;97.40;;;55.05;;
36415;SDS011;22447;44.530;18.620;2022-11-12T04:00:44;94.07;;;49.75;;
36415;SDS011;22447;44.530;18.620;2022-11-12T04:03:28;95.75;;;50.88;;
36415;SDS011;22447;44.530;18.620;2022-11-12T04:06:13;107.05;;;55.75;;
36415;SDS011;22447;44.530;18.620;2022-11-12T04:09:16;94.63;;;53.05;;
36415;SDS011;22447;44.530;18.620;2022-11-12T04:12:01;91.32;;;51.55;;
36415;SDS011;22447;44.530;18.620;2022-11-12T04:15:05;94.10;;;49.70;;
36415;SDS011;22447;44.530;18.620;2022-11-12T04:17:49;96.35;;;51.78;;
36415;SDS011;22447;44.530;18.620;2022-11-12T04:20:52;98.40;;;51.47;;
36415;SDS011;22447;44.530;18.620;2022-11-12T04:23:55;119.63;;;59.75;;
36415;SDS011;22447;44.530;18.620;2022-11-12T04:26:40;111.10;;;55.40;;
36415;SDS011;22447;44.530;18.620;2022-11-12T04:29:25;101.45;;;53.67;;
36415;SDS011;22447;44.530;18.620;2022-11-12T04:32:28;101.78;;;52.22;;
36415;SDS011;22447;44.530;18.620;2022-11-12T04:35:14;107.63;;;55.55;;
36415;SDS011;22447;44.530;18.620;2022-11-12T04:37:59;102.40;;;54.67;;
36415;SDS011;22447;44.530;18.620;2022-11-12T04:40:44;105.82;;;55.80;;
36415;SDS011;22447;44.530;18.620;2022-11-12T04:43:47;102.57;;;56.58;;
36415;SDS011;22447;44.530;18.620;2022-11-12T04:46:50;110.57;;;58.28;;
36415;SDS011;22447;44.530;18.620;2022-11-12T04:49:34;106.75;;;56.35;;
36415;SDS011;22447;44.530;18.620;2022-11-12T04:52:19;108.38;;;58.63;;
36415;SDS011;22447;44.530;18.620;2022-11-12T04:55:04;109.88;;;60.30;;
36415;SDS011;22447;44.530;18.620;2022-11-12T04:57:48;110.50;;;61.25;;
36415;SDS011;22447;44.530;18.620;2022-11-12T05:00:33;116.55;;;62.97;;
36415;SDS011;22447;44.530;18.620;2022-11-12T05:03:17;110.30;;;58.47;;
36415;SDS011;22447;44.530;18.620;2022-11-12T05:06:02;112.97;;;62.20;;
36415;SDS011;22447;44.530;18.620;2022-11-12T05:09:11;118.25;;;61.95;;
36415;SDS011;22447;44.530;18.620;2022-11-12T05:11:56;119.32;;;62.97;;
36415;SDS011;22447;44.530;18.620;2022-11-12T05:14:40;118.80;;;62.22;;
36415;SDS011;22447;44.530;18.620;2022-11-12T05:17:25;110.18;;;60.42;;
36415;SDS011;22447;44.530;18.620;2022-11-12T05:20:10;104.45;;;57.60;;
36415;SDS011;22447;44.530;18.620;2022-11-12T05:22:55;112.30;;;59.47;;
36415;SDS011;22447;44.530;18.620;2022-11-12T05:25:40;111.63;;;62.38;;
36415;SDS011;22447;44.530;18.620;2022-11-12T05:28:24;118.93;;;63.67;;
36415;SDS011;22447;44.530;18.620;2022-11-12T05:31:09;123.70;;;65.28;;
36415;SDS011;22447;44.530;18.620;2022-11-12T05:33:54;130.00;;;71.15;;
36415;SDS011;22447;44.530;18.620;2022-11-12T05:36:39;166.30;;;89.10;;
36415;SDS011;22447;44.530;18.620;2022-11-12T05:39:23;156.32;;;85.63;;
36415;SDS011;22447;44.530;18.620;2022-11-12T05:42:08;141.40;;;79.43;;
36415;SDS011;22447;44.530;18.620;2022-11-12T05:44:52;133.43;;;70.82;;
36415;SDS011;22447;44.530;18.620;2022-11-12T05:47:37;123.13;;;64.25;;
36415;SDS011;22447;44.530;18.620;2022-11-12T05:50:22;110.97;;;60.70;;
36415;SDS011;22447;44.530;18.620;2022-11-12T05:53:07;122.97;;;64.20;;
36415;SDS011;22447;44.530;18.620;2022-11-12T05:55:51;116.57;;;57.88;;
36415;SDS011;22447;44.530;18.620;2022-11-12T05:58:36;120.32;;;59.88;;
36415;SDS011;22447;44.530;18.620;2022-11-12T06:01:21;125.25;;;61.03;;
36415;SDS011;22447;44.530;18.620;2022-11-12T06:04:05;96.22;;;50.58;;
36415;SDS011;22447;44.530;18.620;2022-11-12T06:06:50;97.32;;;48.80;;
36415;SDS011;22447;44.530;18.620;2022-11-12T06:09:35;94.25;;;47.50;;
36415;SDS011;22447;44.530;18.620;2022-11-12T06:12:19;101.35;;;48.97;;
36415;SDS011;22447;44.530;18.620;2022-11-12T06:15:04;100.07;;;51.88;;
36415;SDS011;22447;44.530;18.620;2022-11-12T06:17:49;100.53;;;52.00;;
36415;SDS011;22447;44.530;18.620;2022-11-12T06:20:34;114.28;;;57.92;;
36415;SDS011;22447;44.530;18.620;2022-11-12T06:23:19;121.53;;;62.35;;
36415;SDS011;22447;44.530;18.620;2022-11-12T06:26:04;108.25;;;58.65;;
36415;SDS011;22447;44.530;18.620;2022-11-12T06:28:48;106.32;;;58.40;;
36415;SDS011;22447;44.530;18.620;2022-11-12T06:31:33;120.07;;;62.75;;
36415;SDS011;22447;44.530;18.620;2022-11-12T06:34:18;111.78;;;60.47;;
36415;SDS011;22447;44.530;18.620;2022-11-12T06:37:02;132.05;;;68.72;;
36415;SDS011;22447;44.530;18.620;2022-11-12T06:39:47;121.28;;;65.50;;
36415;SDS011;22447;44.530;18.620;2022-11-12T06:42:32;123.20;;;66.88;;
36415;SDS011;22447;44.530;18.620;2022-11-12T06:45:17;119.07;;;62.08;;
36415;SDS011;22447;44.530;18.620;2022-11-12T06:48:02;133.90;;;69.05;;
36415;SDS011;22447;44.530;18.620;2022-11-12T06:50:46;139.73;;;78.35;;
36415;SDS011;22447;44.530;18.620;2022-11-12T06:53:31;158.30;;;84.32;;
36415;SDS011;22447;44.530;18.620;2022-11-12T06:56:15;138.48;;;73.63;;
36415;SDS011;22447;44.530;18.620;2022-11-12T06:59:00;127.65;;;66.07;;
36415;SDS011;22447;44.530;18.620;2022-11-12T07:01:45;132.63;;;70.18;;
36415;SDS011;22447;44.530;18.620;2022-11-12T07:04:29;126.45;;;68.30;;
36415;SDS011;22447;44.530;18.620;2022-11-12T07:07:14;133.63;;;73.20;;
36415;SDS011;22447;44.530;18.620;2022-11-12T07:09:59;185.15;;;95.90;;
36415;SDS011;22447;44.530;18.620;2022-11-12T07:12:43;180.38;;;101.13;;
36415;SDS011;22447;44.530;18.620;2022-11-12T07:15:28;156.35;;;85.72;;
36415;SDS011;22447;44.530;18.620;2022-11-12T07:18:12;166.50;;;86.93;;
36415;SDS011;22447;44.530;18.620;2022-11-12T07:21:02;234.68;;;128.88;;
36415;SDS011;22447;44.530;18.620;2022-11-12T07:23:49;196.43;;;102.40;;
36415;SDS011;22447;44.530;18.620;2022-11-12T07:26:34;166.05;;;86.00;;
36415;SDS011;22447;44.530;18.620;2022-11-12T07:29:18;157.95;;;85.85;;
36415;SDS011;22447;44.530;18.620;2022-11-12T07:32:03;154.07;;;85.63;;
36415;SDS011;22447;44.530;18.620;2022-11-12T07:34:47;165.50;;;86.78;;
36415;SDS011;22447;44.530;18.620;2022-11-12T07:37:33;161.35;;;84.18;;
36415;SDS011;22447;44.530;18.620;2022-11-12T07:40:18;151.43;;;84.80;;
36415;SDS011;22447;44.530;18.620;2022-11-12T07:43:03;156.38;;;88.18;;
36415;SDS011;22447;44.530;18.620;2022-11-12T07:45:48;152.38;;;87.20;;
36415;SDS011;22447;44.530;18.620;2022-11-12T07:48:32;150.40;;;80.95;;
36415;SDS011;22447;44.530;18.620;2022-11-12T07:51:18;166.80;;;84.20;;
36415;SDS011;22447;44.530;18.620;2022-11-12T07:54:06;159.10;;;85.93;;
36415;SDS011;22447;44.530;18.620;2022-11-12T07:56:51;145.75;;;82.15;;
36415;SDS011;22447;44.530;18.620;2022-11-12T07:59:35;144.00;;;77.50;;
36415;SDS011;22447;44.530;18.620;2022-11-12T08:02:20;135.77;;;75.30;;
36415;SDS011;22447;44.530;18.620;2022-11-12T08:05:05;136.73;;;72.97;;
36415;SDS011;22447;44.530;18.620;2022-11-12T08:07:49;145.52;;;76.40;;
36415;SDS011;22447;44.530;18.620;2022-11-12T08:10:34;141.48;;;75.03;;
36415;SDS011;22447;44.530;18.620;2022-11-12T08:13:18;128.77;;;70.63;;
36415;SDS011;22447;44.530;18.620;2022-11-12T08:16:03;140.77;;;72.00;;
36415;SDS011;22447;44.530;18.620;2022-11-12T08:18:48;127.28;;;70.25;;
36415;SDS011;22447;44.530;18.620;2022-11-12T08:21:33;135.27;;;72.63;;
36415;SDS011;22447;44.530;18.620;2022-11-12T08:24:17;144.50;;;79.07;;
36415;SDS011;22447;44.530;18.620;2022-11-12T08:27:02;127.40;;;69.53;;
36415;SDS011;22447;44.530;18.620;2022-11-12T08:29:47;134.15;;;71.82;;
36415;SDS011;22447;44.530;18.620;2022-11-12T08:32:31;120.53;;;67.13;;
36415;SDS011;22447;44.530;18.620;2022-11-12T08:35:16;121.65;;;66.90;;
36415;SDS011;22447;44.530;18.620;2022-11-12T08:38:02;122.15;;;68.45;;
36415;SDS011;22447;44.530;18.620;2022-11-12T08:40:50;112.55;;;61.60;;
36415;SDS011;22447;44.530;18.620;2022-11-12T08:43:35;108.88;;;61.05;;
36415;SDS011;22447;44.530;18.620;2022-11-12T08:46:20;104.57;;;59.08;;
36415;SDS011;22447;44.530;18.620;2022-11-12T08:49:04;110.82;;;60.83;;
36415;SDS011;22447;44.530;18.620;2022-11-12T08:51:49;101.72;;;56.75;;
36415;SDS011;22447;44.530;18.620;2022-11-12T08:54:33;102.57;;;54.03;;
36415;SDS011;22447;44.530;18.620;2022-11-12T08:57:18;89.93;;;53.70;;
36415;SDS011;22447;44.530;18.620;2022-11-12T09:00:03;91.85;;;51.78;;
36415;SDS011;22447;44.530;18.620;2022-11-12T09:02:49;93.28;;;51.15;;
36415;SDS011;22447;44.530;18.620;2022-11-12T09:05:34;91.65;;;54.25;;
36415;SDS011;22447;44.530;18.620;2022-11-12T09:08:20;89.22;;;49.45;;
36415;SDS011;22447;44.530;18.620;2022-11-12T09:11:06;89.97;;;50.53;;
36415;SDS011;22447;44.530;18.620;2022-11-12T09:13:51;97.07;;;50.50;;
36415;SDS011;22447;44.530;18.620;2022-11-12T09:16:36;94.32;;;49.90;;
36415;SDS011;22447;44.530;18.620;2022-11-12T09:19:20;91.95;;;48.78;;
36415;SDS011;22447;44.530;18.620;2022-11-12T09:22:05;91.28;;;53.08;;
36415;SDS011;22447;44.530;18.620;2022-11-12T09:24:50;93.18;;;51.65;;
36415;SDS011;22447;44.530;18.620;2022-11-12T09:27:34;87.43;;;50.15;;
36415;SDS011;22447;44.530;18.620;2022-11-12T09:30:19;90.32;;;53.10;;
36415;SDS011;22447;44.530;18.620;2022-11-12T09:33:03;87.38;;;50.85;;
36415;SDS011;22447;44.530;18.620;2022-11-12T09:35:48;85.00;;;49.60;;
36415;SDS011;22447;44.530;18.620;2022-11-12T09:38:34;91.78;;;50.42;;
36415;SDS011;22447;44.530;18.620;2022-11-12T09:41:40;87.93;;;49.10;;
36415;SDS011;22447;44.530;18.620;2022-11-12T09:44:24;100.18;;;49.28;;
36415;SDS011;22447;44.530;18.620;2022-11-12T09:47:19;76.32;;;47.40;;
36415;SDS011;22447;44.530;18.620;2022-11-12T09:50:14;81.80;;;48.00;;
36415;SDS011;22447;44.530;18.620;2022-11-12T09:56:21;111.28;;;54.05;;
36415;SDS011;22447;44.530;18.620;2022-11-12T09:59:10;77.55;;;45.05;;
36415;SDS011;22447;44.530;18.620;2022-11-12T10:02:13;76.63;;;44.47;;
36415;SDS011;22447;44.530;18.620;2022-11-12T10:05:19;77.25;;;42.35;;
36415;SDS011;22447;44.530;18.620;2022-11-12T10:11:44;86.97;;;48.35;;
36415;SDS011;22447;44.530;18.620;2022-11-12T10:24:06;66.75;;;35.60;;
36415;SDS011;22447;44.530;18.620;2022-11-12T10:26:54;62.10;;;35.08;;
36415;SDS011;22447;44.530;18.620;2022-11-12T10:29:48;58.08;;;32.53;;
36415;SDS011;22447;44.530;18.620;2022-11-12T10:32:48;53.97;;;29.60;;
36415;SDS011;22447;44.530;18.620;2022-11-12T10:35:35;54.47;;;28.83;;
36415;SDS011;22447;44.530;18.620;2022-11-12T10:38:22;56.67;;;31.20;;
36415;SDS011;22447;44.530;18.620;2022-11-12T10:41:17;56.10;;;28.60;;
36415;SDS011;22447;44.530;18.620;2022-11-12T10:44:03;52.20;;;30.48;;
36415;SDS011;22447;44.530;18.620;2022-11-12T10:46:49;40.83;;;23.60;;
36415;SDS011;22447;44.530;18.620;2022-11-12T10:49:34;38.78;;;22.15;;
36415;SDS011;22447;44.530;18.620;2022-11-12T10:52:20;39.33;;;21.33;;
36415;SDS011;22447;44.530;18.620;2022-11-12T11:00:55;43.58;;;26.88;;
36415;SDS011;22447;44.530;18.620;2022-11-12T11:03:55;50.75;;;25.17;;
36415;SDS011;22447;44.530;18.620;2022-11-12T11:06:41;67.47;;;28.98;;
36415;SDS011;22447;44.530;18.620;2022-11-12T11:09:26;51.08;;;28.77;;
36415;SDS011;22447;44.530;18.620;2022-11-12T11:12:24;43.97;;;27.35;;
36415;SDS011;22447;44.530;18.620;2022-11-12T11:18:07;58.20;;;24.85;;
36415;SDS011;22447;44.530;18.620;2022-11-12T11:21:46;48.55;;;28.00;;
36415;SDS011;22447;44.530;18.620;2022-11-12T11:39:23;44.33;;;26.90;;
36415;SDS011;22447;44.530;18.620;2022-11-12T11:42:27;53.20;;;29.23;;
36415;SDS011;22447;44.530;18.620;2022-11-12T11:46:36;46.08;;;26.63;;
36415;SDS011;22447;44.530;18.620;2022-11-12T11:49:24;42.40;;;25.20;;
36415;SDS011;22447;44.530;18.620;2022-11-12T11:52:31;44.60;;;26.23;;
36415;SDS011;22447;44.530;18.620;2022-11-12T11:55:37;41.10;;;22.42;;
36415;SDS011;22447;44.530;18.620;2022-11-12T11:58:48;37.17;;;23.83;;
36415;SDS011;22447;44.530;18.620;2022-11-12T12:04:50;50.85;;;27.92;;
36415;SDS011;22447;44.530;18.620;2022-11-12T12:11:01;52.47;;;28.95;;
36415;SDS011;22447;44.530;18.620;2022-11-12T12:17:00;61.65;;;33.60;;
36415;SDS011;22447;44.530;18.620;2022-11-12T12:20:02;50.20;;;27.63;;
36415;SDS011;22447;44.530;18.620;2022-11-12T12:22:58;49.13;;;26.60;;
36415;SDS011;22447;44.530;18.620;2022-11-12T12:25:49;43.47;;;21.50;;
36415;SDS011;22447;44.530;18.620;2022-11-12T12:31:36;41.92;;;21.63;;
36415;SDS011;22447;44.530;18.620;2022-11-12T12:34:32;33.25;;;17.98;;
36415;SDS011;22447;44.530;18.620;2022-11-12T12:37:36;27.45;;;15.95;;
36415;SDS011;22447;44.530;18.620;2022-11-12T12:40:31;33.08;;;16.38;;
36415;SDS011;22447;44.530;18.620;2022-11-12T12:46:33;33.90;;;17.23;;
36415;SDS011;22447;44.530;18.620;2022-11-12T12:49:28;23.52;;;13.07;;
36415;SDS011;22447;44.530;18.620;2022-11-12T12:52:16;33.58;;;13.88;;
36415;SDS011;22447;44.530;18.620;2022-11-12T12:55:01;24.58;;;14.23;;
36415;SDS011;22447;44.530;18.620;2022-11-12T12:57:46;22.27;;;13.30;;
36415;SDS011;22447;44.530;18.620;2022-11-12T13:00:31;23.98;;;14.02;;
36415;SDS011;22447;44.530;18.620;2022-11-12T13:09:29;25.10;;;12.88;;
36415;SDS011;22447;44.530;18.620;2022-11-12T13:12:15;18.52;;;10.65;;
36415;SDS011;22447;44.530;18.620;2022-11-12T13:15:31;16.67;;;9.57;;
36415;SDS011;22447;44.530;18.620;2022-11-12T13:21:22;27.23;;;11.90;;
36415;SDS011;22447;44.530;18.620;2022-11-12T13:24:08;19.52;;;10.27;;
36415;SDS011;22447;44.530;18.620;2022-11-12T13:26:58;17.67;;;9.95;;
36415;SDS011;22447;44.530;18.620;2022-11-12T13:29:44;21.10;;;11.10;;
36415;SDS011;22447;44.530;18.620;2022-11-12T13:32:52;29.48;;;12.38;;
36415;SDS011;22447;44.530;18.620;2022-11-12T13:35:37;33.50;;;12.40;;
36415;SDS011;22447;44.530;18.620;2022-11-12T13:38:22;27.67;;;11.77;;
36415;SDS011;22447;44.530;18.620;2022-11-12T13:41:18;34.25;;;12.77;;
36415;SDS011;22447;44.530;18.620;2022-11-12T13:44:24;24.85;;;13.18;;
36415;SDS011;22447;44.530;18.620;2022-11-12T13:47:14;28.05;;;12.52;;
36415;SDS011;22447;44.530;18.620;2022-11-12T13:50:02;34.80;;;12.98;;
36415;SDS011;22447;44.530;18.620;2022-11-12T13:52:51;26.02;;;13.32;;
36415;SDS011;22447;44.530;18.620;2022-11-12T13:55:36;24.40;;;12.25;;
36415;SDS011;22447;44.530;18.620;2022-11-12T13:58:34;22.27;;;12.25;;
36415;SDS011;22447;44.530;18.620;2022-11-12T14:01:19;23.40;;;13.43;;
36415;SDS011;22447;44.530;18.620;2022-11-12T14:04:07;26.98;;;14.30;;
36415;SDS011;22447;44.530;18.620;2022-11-12T14:06:58;33.53;;;14.65;;
36415;SDS011;22447;44.530;18.620;2022-11-12T14:10:10;36.70;;;17.83;;
36415;SDS011;22447;44.530;18.620;2022-11-12T14:21:58;76.90;;;34.90;;
36415;SDS011;22447;44.530;18.620;2022-11-12T14:25:00;66.07;;;32.15;;
36415;SDS011;22447;44.530;18.620;2022-11-12T14:27:46;67.15;;;35.42;;
36415;SDS011;22447;44.530;18.620;2022-11-12T14:30:41;79.57;;;43.08;;
36415;SDS011;22447;44.530;18.620;2022-11-12T14:33:28;61.38;;;35.67;;
36415;SDS011;22447;44.530;18.620;2022-11-12T14:36:14;53.45;;;31.63;;
36415;SDS011;22447;44.530;18.620;2022-11-12T14:39:01;55.20;;;27.90;;
36415;SDS011;22447;44.530;18.620;2022-11-12T14:41:46;47.88;;;29.33;;
36415;SDS011;22447;44.530;18.620;2022-11-12T14:44:35;46.72;;;30.00;;
36415;SDS011;22447;44.530;18.620;2022-11-12T14:47:20;72.93;;;43.72;;
36415;SDS011;22447;44.530;18.620;2022-11-12T14:50:10;51.03;;;31.88;;
36415;SDS011;22447;44.530;18.620;2022-11-12T14:53:18;48.85;;;27.45;;
36415;SDS011;22447;44.530;18.620;2022-11-12T14:56:08;61.13;;;36.15;;
36415;SDS011;22447;44.530;18.620;2022-11-12T14:59:17;75.20;;;43.40;;
36415;SDS011;22447;44.530;18.620;2022-11-12T15:02:10;72.35;;;40.40;;
36415;SDS011;22447;44.530;18.620;2022-11-12T15:05:01;53.65;;;31.40;;
36415;SDS011;22447;44.530;18.620;2022-11-12T15:08:10;56.90;;;34.22;;
36415;SDS011;22447;44.530;18.620;2022-11-12T15:10:55;54.22;;;31.77;;
36415;SDS011;22447;44.530;18.620;2022-11-12T15:13:56;70.75;;;41.72;;
36415;SDS011;22447;44.530;18.620;2022-11-12T15:16:46;71.73;;;38.13;;
36415;SDS011;22447;44.530;18.620;2022-11-12T15:19:31;62.85;;;34.80;;
36415;SDS011;22447;44.530;18.620;2022-11-12T15:22:18;70.35;;;35.67;;
36415;SDS011;22447;44.530;18.620;2022-11-12T15:25:08;77.95;;;36.35;;
36415;SDS011;22447;44.530;18.620;2022-11-12T15:27:54;62.83;;;34.10;;
36415;SDS011;22447;44.530;18.620;2022-11-12T15:31:01;83.93;;;42.28;;
36415;SDS011;22447;44.530;18.620;2022-11-12T15:33:50;110.18;;;52.00;;
36415;SDS011;22447;44.530;18.620;2022-11-12T15:36:34;72.47;;;42.25;;
36415;SDS011;22447;44.530;18.620;2022-11-12T15:39:19;58.60;;;34.88;;
36415;SDS011;22447;44.530;18.620;2022-11-12T15:42:46;54.97;;;31.98;;
36415;SDS011;22447;44.530;18.620;2022-11-12T15:45:20;61.55;;;39.53;;
36415;SDS011;22447;44.530;18.620;2022-11-12T15:48:06;63.80;;;37.97;;
36415;SDS011;22447;44.530;18.620;2022-11-12T15:50:53;53.13;;;34.13;;
36415;SDS011;22447;44.530;18.620;2022-11-12T15:53:38;53.70;;;32.60;;
36415;SDS011;22447;44.530;18.620;2022-11-12T15:56:23;59.25;;;37.65;;
36415;SDS011;22447;44.530;18.620;2022-11-12T15:59:16;81.55;;;47.55;;
36415;SDS011;22447;44.530;18.620;2022-11-12T16:02:01;71.00;;;41.15;;
36415;SDS011;22447;44.530;18.620;2022-11-12T16:04:46;75.95;;;41.60;;
36415;SDS011;22447;44.530;18.620;2022-11-12T16:07:30;83.38;;;43.42;;
36415;SDS011;22447;44.530;18.620;2022-11-12T16:10:16;83.78;;;41.65;;
36415;SDS011;22447;44.530;18.620;2022-11-12T16:13:01;155.55;;;95.25;;
36415;SDS011;22447;44.530;18.620;2022-11-12T16:15:51;104.38;;;66.82;;
36415;SDS011;22447;44.530;18.620;2022-11-12T16:18:36;100.78;;;62.70;;
36415;SDS011;22447;44.530;18.620;2022-11-12T16:21:20;72.90;;;47.97;;
36415;SDS011;22447;44.530;18.620;2022-11-12T16:24:05;75.60;;;42.70;;
36415;SDS011;22447;44.530;18.620;2022-11-12T16:26:50;75.50;;;40.78;;
36415;SDS011;22447;44.530;18.620;2022-11-12T16:29:34;70.65;;;38.85;;
36415;SDS011;22447;44.530;18.620;2022-11-12T16:32:19;46.38;;;29.45;;
36415;SDS011;22447;44.530;18.620;2022-11-12T16:35:04;72.35;;;39.55;;
36415;SDS011;22447;44.530;18.620;2022-11-12T16:37:48;55.88;;;30.08;;
36415;SDS011;22447;44.530;18.620;2022-11-12T16:40:34;111.88;;;50.50;;
36415;SDS011;22447;44.530;18.620;2022-11-12T16:43:18;213.30;;;96.93;;
36415;SDS011;22447;44.530;18.620;2022-11-12T16:49:23;173.05;;;82.85;;
36415;SDS011;22447;44.530;18.620;2022-11-12T16:52:09;206.30;;;91.50;;
36415;SDS011;22447;44.530;18.620;2022-11-12T16:54:53;198.07;;;94.95;;
36415;SDS011;22447;44.530;18.620;2022-11-12T16:57:38;173.38;;;85.10;;
36415;SDS011;22447;44.530;18.620;2022-11-12T17:00:28;129.13;;;67.43;;
36415;SDS011;22447;44.530;18.620;2022-11-12T17:03:17;177.35;;;94.43;;
36415;SDS011;22447;44.530;18.620;2022-11-12T17:06:02;181.10;;;95.90;;
36415;SDS011;22447;44.530;18.620;2022-11-12T17:08:47;153.35;;;77.10;;
36415;SDS011;22447;44.530;18.620;2022-11-12T17:11:35;125.13;;;67.88;;
36415;SDS011;22447;44.530;18.620;2022-11-12T17:14:20;108.32;;;59.75;;
36415;SDS011;22447;44.530;18.620;2022-11-12T17:17:04;112.57;;;58.47;;